createdAt,value
2022-09-07T00:02:11.995Z,101268.00
2022-09-07T00:04:38.913Z,101279.00
2022-09-07T00:07:05.705Z,101281.00
2022-09-07T00:09:32.634Z,101278.00
2022-09-07T00:11:59.466Z,101276.00
2022-09-07T00:14:26.344Z,101265.00
2022-09-07T00:16:53.194Z,101264.00
2022-09-07T00:19:20.043Z,101248.00
2022-09-07T00:21:46.953Z,101236.00
2022-09-07T00:24:14.730Z,101239.00
2022-09-07T00:26:41.660Z,101244.00
2022-09-07T00:29:08.559Z,101245.00
2022-09-07T00:31:35.669Z,101246.00
2022-09-07T00:34:03.007Z,101245.00
2022-09-07T00:36:30.378Z,101238.00
2022-09-07T00:38:57.726Z,101236.00
2022-09-07T00:41:24.655Z,101260.00
2022-09-07T00:43:56.046Z,101248.00
2022-09-07T00:46:25.847Z,101241.00
2022-09-07T00:49:13.041Z,101235.00
2022-09-07T00:51:50.246Z,101237.00
2022-09-07T00:54:31.809Z,101233.00
2022-09-07T00:56:59.057Z,101233.00
2022-09-07T00:59:30.327Z,101212.00
2022-09-07T01:01:57.376Z,101218.00
2022-09-07T01:04:25.015Z,101225.00
2022-09-07T01:06:54.026Z,101222.00
2022-09-07T01:09:23.649Z,101225.00
2022-09-07T01:11:52.476Z,101218.00
2022-09-07T01:14:25.215Z,101219.00
2022-09-07T01:17:07.354Z,101229.00
2022-09-07T01:19:53.009Z,101225.00
2022-09-07T01:22:32.285Z,101228.00
2022-09-07T01:25:14.477Z,101220.00
2022-09-07T01:28:11.998Z,101213.00
2022-09-07T01:30:42.288Z,101212.00
2022-09-07T01:33:19.292Z,101205.00
2022-09-07T01:36:17.686Z,101201.00
2022-09-07T01:38:52.550Z,101199.00
2022-09-07T01:41:45.602Z,101204.00
2022-09-07T01:44:27.167Z,101200.00
2022-09-07T01:47:05.313Z,101199.00
2022-09-07T01:49:47.723Z,101184.00
2022-09-07T01:52:27.592Z,101195.00
2022-09-07T01:55:15.616Z,101191.00
2022-09-07T01:57:50.328Z,101188.00
2022-09-07T02:00:19.279Z,101181.00
2022-09-07T02:03:05.009Z,101188.00
2022-09-07T02:05:41.843Z,101189.00
2022-09-07T02:08:27.536Z,101185.00
2022-09-07T02:11:02.488Z,101182.00
2022-09-07T02:13:41.222Z,101185.00
2022-09-07T02:16:15.789Z,101184.00
2022-09-07T02:18:50.169Z,101185.00
2022-09-07T02:21:20.655Z,101197.00
2022-09-07T02:23:51.762Z,101203.00
2022-09-07T02:26:23.807Z,101206.00
2022-09-07T02:28:51.010Z,101201.00
2022-09-07T02:31:17.947Z,101198.00
2022-09-07T02:33:44.930Z,101199.00
2022-09-07T02:36:12.716Z,101191.00
2022-09-07T02:38:39.831Z,101179.00
2022-09-07T02:41:26.579Z,101179.00
2022-09-07T02:43:53.563Z,101179.00
2022-09-07T02:46:33.106Z,101182.00
2022-09-07T02:49:35.952Z,101168.00
2022-09-07T02:52:17.996Z,101163.00
2022-09-07T02:55:22.839Z,101156.00
2022-09-07T02:57:58.628Z,101151.00
2022-09-07T03:00:28.305Z,101139.00
2022-09-07T03:03:03.558Z,101129.00
2022-09-07T03:05:42.412Z,101120.00
2022-09-07T03:08:20.089Z,101122.00
2022-09-07T03:10:47.766Z,101124.00
2022-09-07T03:13:34.969Z,101121.00
2022-09-07T03:16:02.094Z,101117.00
2022-09-07T03:18:29.260Z,101112.00
2022-09-07T03:20:56.367Z,101114.00
2022-09-07T03:23:23.530Z,101121.00
2022-09-07T03:25:50.663Z,101127.00
2022-09-07T03:28:17.589Z,101121.00
2022-09-07T03:30:46.229Z,101132.00
2022-09-07T03:33:15.837Z,101134.00
2022-09-07T03:35:56.379Z,101125.00
2022-09-07T03:38:23.197Z,101129.00
2022-09-07T03:41:04.924Z,101129.00
2022-09-07T03:43:32.161Z,101121.00
2022-09-07T03:46:04.797Z,101122.00
2022-09-07T03:48:34.672Z,101128.00
2022-09-07T03:51:07.218Z,101132.00
2022-09-07T03:53:35.620Z,101143.00
2022-09-07T03:56:05.751Z,101133.00
2022-09-07T03:58:33.894Z,101142.00
2022-09-07T04:01:05.303Z,101147.00
2022-09-07T04:03:32.306Z,101141.00
2022-09-07T04:06:00.150Z,101143.00
2022-09-07T04:08:28.728Z,101147.00
2022-09-07T04:10:57.471Z,101141.00
2022-09-07T04:13:25.969Z,101134.00
2022-09-07T04:15:53.979Z,101126.00
2022-09-07T04:18:21.509Z,101115.00
2022-09-07T04:20:52.730Z,101107.00
2022-09-07T04:23:19.690Z,101103.00
2022-09-07T04:25:51.201Z,101105.00
2022-09-07T04:28:20.120Z,101099.00
2022-09-07T04:30:47.390Z,101106.00
2022-09-07T04:33:14.700Z,101086.00
2022-09-07T04:35:42.548Z,101089.00
2022-09-07T04:38:13.599Z,101082.00
2022-09-07T04:40:40.457Z,101087.00
2022-09-07T04:43:08.354Z,101072.00
2022-09-07T04:45:38.545Z,101066.00
2022-09-07T04:48:05.782Z,101054.00
2022-09-07T04:50:32.985Z,101061.00
2022-09-07T04:52:59.830Z,101053.00
2022-09-07T04:55:26.713Z,101043.00
2022-09-07T04:57:53.550Z,101063.00
2022-09-07T05:00:20.555Z,101063.00
2022-09-07T05:02:47.739Z,101084.00
2022-09-07T05:05:14.910Z,101084.00
2022-09-07T05:07:41.810Z,101074.00
2022-09-07T05:10:08.921Z,101087.00
2022-09-07T05:12:35.871Z,101095.00
2022-09-07T05:15:02.941Z,101104.00
2022-09-07T05:17:31.124Z,101092.00
2022-09-07T05:19:58.325Z,101095.00
2022-09-07T05:22:25.272Z,101103.00
2022-09-07T05:24:52.151Z,101106.00
2022-09-07T05:27:19.148Z,101117.00
2022-09-07T05:30:03.736Z,101110.00
2022-09-07T05:32:31.931Z,101119.00
2022-09-07T05:34:58.836Z,101118.00
2022-09-07T05:37:25.654Z,101112.00
2022-09-07T05:39:55.066Z,101118.00
2022-09-07T05:42:22.744Z,101126.00
2022-09-07T05:44:49.669Z,101134.00
2022-09-07T05:47:16.556Z,101126.00
2022-09-07T05:49:43.395Z,101137.00
2022-09-07T05:52:10.366Z,101139.00
2022-09-07T05:54:37.431Z,101145.00
2022-09-07T05:57:04.816Z,101139.00
2022-09-07T05:59:31.656Z,101151.00
2022-09-07T06:01:58.644Z,101160.00
2022-09-07T06:04:25.668Z,101159.00
2022-09-07T06:07:20.103Z,101155.00
2022-09-07T06:12:27.848Z,101171.00
2022-09-07T06:14:54.819Z,101177.00
2022-09-07T06:17:21.723Z,101180.00
2022-09-07T06:19:48.809Z,101171.00
2022-09-07T06:22:15.651Z,101179.00
2022-09-07T06:24:42.550Z,101159.00
2022-09-07T06:27:09.471Z,101145.00
2022-09-07T06:29:36.375Z,101126.00
2022-09-07T06:34:50.385Z,101155.00
2022-09-07T06:37:17.227Z,101154.00
2022-09-07T06:39:44.147Z,101183.00
2022-09-07T06:42:11.074Z,101226.00
2022-09-07T06:44:38.022Z,101211.00
2022-09-07T06:47:05.308Z,101180.00
2022-09-07T06:49:32.198Z,101162.00
2022-09-07T06:51:59.063Z,101170.00
2022-09-07T06:57:12.816Z,101186.00
2022-09-07T06:59:39.771Z,101187.00
2022-09-07T07:02:07.244Z,101198.00
2022-09-07T07:04:39.540Z,101204.00
2022-09-07T07:07:10.721Z,101194.00
2022-09-07T07:09:38.242Z,101189.00
2022-09-07T07:12:05.241Z,101181.00
2022-09-07T07:14:34.603Z,101172.00
2022-09-07T07:17:02.536Z,101170.00
2022-09-07T07:19:29.527Z,101167.00
2022-09-07T07:24:43.206Z,101171.00
2022-09-07T07:27:10.120Z,101187.00
2022-09-07T07:29:36.993Z,101176.00
2022-09-07T07:32:04.369Z,101169.00
2022-09-07T07:34:31.296Z,101193.00
2022-09-07T07:36:58.174Z,101206.00
2022-09-07T07:42:12.530Z,101192.00
2022-09-07T07:44:39.488Z,101212.00
2022-09-07T07:47:06.436Z,101187.00
2022-09-07T07:49:33.246Z,101196.00
2022-09-07T07:54:47.083Z,101190.00
2022-09-07T07:57:14.123Z,101203.00
2022-09-07T07:59:41.101Z,101210.00
2022-09-07T08:02:13.701Z,101222.00
2022-09-07T08:04:40.675Z,101202.00
2022-09-07T08:07:10.949Z,101194.00
2022-09-07T08:09:39.786Z,101187.00
2022-09-07T08:12:07.071Z,101187.00
2022-09-07T08:14:36.592Z,101199.00
2022-09-07T08:17:03.411Z,101206.00
2022-09-07T08:19:30.275Z,101234.00
2022-09-07T08:21:57.127Z,101218.00
2022-09-07T08:24:24.137Z,101229.00
2022-09-07T08:26:51.354Z,101198.00
2022-09-07T08:29:18.272Z,101223.00
2022-09-07T08:31:45.181Z,101242.00
2022-09-07T08:34:41.205Z,101224.00
2022-09-07T08:37:08.174Z,101214.00
2022-09-07T08:39:36.012Z,101222.00
2022-09-07T08:42:15.555Z,101213.00
2022-09-07T08:44:48.853Z,101212.00
2022-09-07T08:47:50.446Z,101213.00
2022-09-07T08:50:33.617Z,101197.00
2022-09-07T08:53:12.731Z,101210.00
2022-09-07T08:55:47.346Z,101195.00
2022-09-07T08:58:48.216Z,101196.00
2022-09-07T09:01:31.540Z,101190.00
2022-09-07T09:07:20.888Z,101194.00
2022-09-07T09:09:50.296Z,101176.00
2022-09-07T09:12:37.567Z,101175.00
2022-09-07T09:15:33.146Z,101167.00
2022-09-07T09:18:14.597Z,101162.00
2022-09-07T09:20:49.218Z,101160.00
2022-09-07T09:23:17.841Z,101145.00
2022-09-07T09:25:57.248Z,101141.00
2022-09-07T09:28:28.977Z,101164.00
2022-09-07T09:30:58.590Z,101152.00
2022-09-07T09:33:27.539Z,101146.00
2022-09-07T09:36:00.498Z,101150.00
2022-09-07T09:38:40.199Z,101148.00
2022-09-07T09:41:12.050Z,101156.00
2022-09-07T09:43:52.807Z,101155.00
2022-09-07T09:49:46.480Z,101133.00
2022-09-07T09:52:42.962Z,101136.00
2022-09-07T09:55:30.600Z,101122.00
2022-09-07T10:01:24.013Z,101126.00
2022-09-07T10:06:24.348Z,101061.00
2022-09-07T10:08:59.301Z,101054.00
2022-09-07T10:14:43.338Z,101046.00
2022-09-07T10:17:26.676Z,101040.00
2022-09-07T10:19:58.298Z,101034.00
2022-09-07T10:22:38.355Z,101031.00
2022-09-07T10:25:29.504Z,101040.00
2022-09-07T10:28:04.292Z,101029.00
2022-09-07T10:31:08.012Z,101026.00
2022-09-07T10:37:04.682Z,101032.00
2022-09-07T10:39:37.428Z,101023.00
2022-09-07T10:42:25.825Z,101032.00
2022-09-07T10:45:39.034Z,101048.00
2022-09-07T10:48:25.493Z,101045.00
2022-09-07T10:51:13.788Z,101042.00
2022-09-07T10:56:58.003Z,101073.00
2022-09-07T11:06:27.561Z,101035.00
2022-09-07T11:09:17.820Z,101026.00
2022-09-07T11:12:12.033Z,101039.00
2022-09-07T11:14:50.308Z,101043.00
2022-09-07T11:17:22.958Z,101035.00
2022-09-07T11:20:13.807Z,101037.00
2022-09-07T11:22:47.503Z,101040.00
2022-09-07T11:25:31.873Z,101038.00
2022-09-07T11:28:13.103Z,101039.00
2022-09-07T11:30:47.879Z,101045.00
2022-09-07T11:33:29.419Z,101028.00
2022-09-07T11:36:31.467Z,101028.00
2022-09-07T11:39:07.713Z,101023.00
2022-09-07T11:41:39.657Z,101016.00
2022-09-07T11:44:25.866Z,101026.00
2022-09-07T11:46:56.314Z,101042.00
2022-09-07T11:49:25.965Z,101037.00
2022-09-07T11:51:55.446Z,101030.00
2022-09-07T11:54:43.602Z,101035.00
2022-09-07T11:57:22.972Z,101055.00
2022-09-07T12:00:23.567Z,101068.00
2022-09-07T12:03:05.484Z,101073.00
2022-09-07T12:05:37.926Z,101076.00
2022-09-07T12:08:18.318Z,101089.00
2022-09-07T12:11:23.180Z,101057.00
2022-09-07T12:14:08.941Z,101072.00
2022-09-07T12:17:08.127Z,101070.00
2022-09-07T12:19:35.025Z,101080.00
2022-09-07T12:22:01.979Z,101072.00
2022-09-07T12:24:42.543Z,101064.00
2022-09-07T12:27:31.967Z,101076.00
2022-09-07T12:29:59.554Z,101084.00
2022-09-07T12:32:54.541Z,101091.00
2022-09-07T12:35:37.176Z,101077.00
2022-09-07T12:38:30.307Z,101078.00
2022-09-07T12:41:01.073Z,101084.00
2022-09-07T12:43:27.790Z,101087.00
2022-09-07T12:45:56.709Z,101077.00
2022-09-07T12:48:32.487Z,101082.00
2022-09-07T12:51:10.994Z,101081.00
2022-09-07T12:53:57.851Z,101082.00
2022-09-07T12:56:36.759Z,101079.00
2022-09-07T12:59:22.333Z,101076.00
2022-09-07T13:02:26.940Z,101083.00
2022-09-07T13:05:15.557Z,101044.00
2022-09-07T13:08:09.297Z,101076.00
2022-09-07T13:10:39.453Z,101076.00
2022-09-07T13:13:16.126Z,101069.00
2022-09-07T13:15:43.047Z,101076.00
2022-09-07T13:18:13.941Z,101062.00
2022-09-07T13:20:41.714Z,101056.00
2022-09-07T13:23:16.642Z,101075.00
2022-09-07T13:25:47.003Z,101083.00
2022-09-07T13:28:33.235Z,101076.00
2022-09-07T13:31:21.882Z,101064.00
2022-09-07T13:33:50.590Z,101078.00
2022-09-07T13:36:36.941Z,101035.00
2022-09-07T13:39:07.674Z,101068.00
2022-09-07T13:41:42.428Z,101048.00
2022-09-07T13:44:29.731Z,101084.00
2022-09-07T13:46:59.663Z,101089.00
2022-09-07T13:49:45.265Z,101073.00
2022-09-07T13:52:19.002Z,101084.00
2022-09-07T13:55:05.053Z,101067.00
2022-09-07T13:58:08.687Z,101069.00
2022-09-07T14:00:35.673Z,101090.00
2022-09-07T14:03:07.416Z,101074.00
2022-09-07T14:05:34.232Z,101074.00
2022-09-07T14:08:01.016Z,101075.00
2022-09-07T14:10:29.167Z,101099.00
2022-09-07T14:13:07.130Z,101080.00
2022-09-07T14:15:42.158Z,101083.00
2022-09-07T14:18:14.524Z,101080.00
2022-09-07T14:20:52.936Z,101073.00
2022-09-07T14:23:31.467Z,101061.00
2022-09-07T14:26:23.090Z,101070.00
2022-09-07T14:28:55.835Z,101077.00
2022-09-07T14:31:27.077Z,101088.00
2022-09-07T14:33:56.995Z,101076.00
2022-09-07T14:36:46.085Z,101082.00
2022-09-07T14:39:15.456Z,101066.00
2022-09-07T14:41:43.419Z,101067.00
2022-09-07T14:44:38.721Z,101065.00
2022-09-07T14:47:29.294Z,101074.00
2022-09-07T14:49:59.767Z,101063.00
2022-09-07T14:52:31.466Z,101055.00
2022-09-07T14:54:58.529Z,101070.00
2022-09-07T14:57:31.678Z,101064.00
2022-09-07T15:00:29.373Z,101057.00
2022-09-07T15:02:56.469Z,101041.00
2022-09-07T15:05:28.347Z,101053.00
2022-09-07T15:07:58.312Z,101044.00
2022-09-07T15:10:38.305Z,101059.00
2022-09-07T15:13:20.526Z,101044.00
2022-09-07T15:15:57.185Z,101054.00
2022-09-07T15:18:45.546Z,101048.00
2022-09-07T15:21:12.382Z,101050.00
2022-09-07T15:23:39.848Z,101049.00
2022-09-07T15:26:08.997Z,101041.00
2022-09-07T15:31:54.302Z,101042.00
2022-09-07T15:34:18.208Z,101028.00
2022-09-07T15:36:53.597Z,101017.00
2022-09-07T15:39:26.640Z,101023.00
2022-09-07T15:41:53.750Z,101029.00
2022-09-07T15:44:25.287Z,101014.00
2022-09-07T15:49:47.412Z,101007.00
2022-09-07T15:52:17.204Z,101007.00
2022-09-07T15:54:44.451Z,101004.00
2022-09-07T15:59:58.713Z,101004.00
2022-09-07T16:10:53.944Z,100984.00
2022-09-07T16:13:23.814Z,101001.00
2022-09-07T16:15:50.628Z,100985.00
2022-09-07T16:18:20.409Z,101002.00
2022-09-07T16:21:28.410Z,100981.00
2022-09-07T16:23:55.594Z,100987.00
2022-09-07T16:26:24.584Z,100985.00
2022-09-07T16:28:52.922Z,100987.00
2022-09-07T16:31:26.392Z,100962.00
2022-09-07T16:34:13.299Z,100972.00
2022-09-07T16:36:41.286Z,100967.00
2022-09-07T16:39:08.782Z,100959.00
2022-09-07T16:41:35.753Z,100956.00
2022-09-07T16:44:02.858Z,100959.00
2022-09-07T16:46:42.966Z,100952.00
2022-09-07T16:49:11.022Z,100940.00
2022-09-07T16:51:39.672Z,100933.00
2022-09-07T16:54:07.045Z,100933.00
2022-09-07T16:56:38.768Z,100927.00
2022-09-07T16:59:07.061Z,100926.00
2022-09-07T17:01:35.623Z,100931.00
2022-09-07T17:04:07.997Z,100926.00
2022-09-07T17:06:37.851Z,100920.00
2022-09-07T17:09:05.434Z,100926.00
2022-09-07T17:11:34.617Z,100928.00
2022-09-07T17:14:01.767Z,100924.00
2022-09-07T17:16:34.197Z,100918.00
2022-09-07T17:21:51.762Z,100923.00
2022-09-07T17:24:19.688Z,100917.00
2022-09-07T17:26:46.725Z,100915.00
2022-09-07T17:29:14.628Z,100923.00
2022-09-07T17:34:32.226Z,100927.00
2022-09-07T17:37:00.513Z,100915.00
2022-09-07T17:39:28.159Z,100917.00
2022-09-07T17:41:55.078Z,100919.00
2022-09-07T17:44:23.257Z,100926.00
2022-09-07T17:46:50.673Z,100913.00
2022-09-07T17:49:17.851Z,100918.00
2022-09-07T17:51:45.696Z,100916.00
2022-09-07T17:54:14.962Z,100917.00
2022-09-07T17:56:42.332Z,100918.00
2022-09-07T18:01:56.654Z,100906.00
2022-09-07T18:04:23.509Z,100907.00
2022-09-07T18:06:51.023Z,100915.00
2022-09-07T18:09:19.573Z,100918.00
2022-09-07T18:11:48.023Z,100920.00
2022-09-07T18:14:16.674Z,100919.00
2022-09-07T18:16:44.955Z,100922.00
2022-09-07T18:19:12.133Z,100913.00
2022-09-07T18:21:43.290Z,100905.00
2022-09-07T18:24:19.483Z,100908.00
2022-09-07T18:26:51.963Z,100910.00
2022-09-07T18:29:31.371Z,100916.00
2022-09-07T18:32:01.475Z,100913.00
2022-09-07T18:34:34.536Z,100920.00
2022-09-07T18:37:01.589Z,100916.00
2022-09-07T18:39:29.086Z,100914.00
2022-09-07T18:41:56.219Z,100914.00
2022-09-07T18:47:21.118Z,100927.00
2022-09-07T18:49:50.225Z,100927.00
2022-09-07T18:55:06.999Z,100905.00
2022-09-07T18:57:34.260Z,100921.00
2022-09-07T19:00:01.113Z,100927.00
2022-09-07T19:02:27.986Z,100910.00
2022-09-07T19:07:41.597Z,100912.00
2022-09-07T19:10:08.777Z,100910.00
2022-09-07T19:12:36.235Z,100909.00
2022-09-07T19:15:03.901Z,100914.00
2022-09-07T19:17:31.624Z,100912.00
2022-09-07T19:19:58.449Z,100921.00
2022-09-07T19:22:27.234Z,100914.00
2022-09-07T19:24:54.361Z,100912.00
2022-09-07T19:27:21.245Z,100912.00
2022-09-07T19:29:49.581Z,100908.00
2022-09-07T19:32:17.111Z,100909.00
2022-09-07T19:34:45.505Z,100912.00
2022-09-07T19:37:13.391Z,100911.00
2022-09-07T19:39:40.190Z,100911.00
2022-09-07T19:42:07.154Z,100917.00
2022-09-07T19:44:34.039Z,100919.00
2022-09-07T19:47:01.188Z,100925.00
2022-09-07T19:49:28.611Z,100916.00
2022-09-07T19:51:55.791Z,100924.00
2022-09-07T19:54:22.656Z,100922.00
2022-09-07T19:57:16.080Z,100919.00
2022-09-07T20:00:31.348Z,100930.00
2022-09-07T20:03:02.356Z,100925.00
2022-09-07T20:05:32.069Z,100918.00
2022-09-07T20:07:58.944Z,100914.00
2022-09-07T20:10:32.336Z,100914.00
2022-09-07T20:12:59.241Z,100917.00
2022-09-07T20:15:27.297Z,100913.00
2022-09-07T20:17:55.226Z,100918.00
2022-09-07T20:20:23.307Z,100906.00
2022-09-07T20:22:50.811Z,100919.00
2022-09-07T20:25:17.777Z,100913.00
2022-09-07T20:27:44.632Z,100906.00
2022-09-07T20:30:11.885Z,100911.00
2022-09-07T20:32:38.983Z,100915.00
2022-09-07T20:35:06.546Z,100902.00
2022-09-07T20:37:34.288Z,100905.00
2022-09-07T20:40:01.254Z,100899.00
2022-09-07T20:42:28.148Z,100895.00
2022-09-07T20:44:55.171Z,100900.00
2022-09-07T20:47:22.113Z,100887.00
2022-09-07T20:49:48.900Z,100899.00
2022-09-07T20:52:16.004Z,100899.00
2022-09-07T20:54:43.213Z,100900.00
2022-09-07T20:57:10.340Z,100883.00
2022-09-07T20:59:37.117Z,100897.00
2022-09-07T21:02:04.085Z,100900.00
2022-09-07T21:04:30.936Z,100895.00
2022-09-07T21:06:57.712Z,100900.00
2022-09-07T21:09:24.487Z,100905.00
2022-09-07T21:11:55.100Z,100905.00
2022-09-07T21:14:23.752Z,100899.00
2022-09-07T21:16:50.514Z,100900.00
2022-09-07T21:19:17.384Z,100903.00
2022-09-07T21:21:44.092Z,100891.00
2022-09-07T21:24:20.146Z,100901.00
2022-09-07T21:26:47.346Z,100895.00
2022-09-07T21:29:24.614Z,100900.00
2022-09-07T21:31:54.981Z,100889.00
2022-09-07T21:34:22.437Z,100889.00
2022-09-07T21:36:51.155Z,100891.00
2022-09-07T21:39:18.324Z,100903.00
2022-09-07T21:41:45.257Z,100895.00
2022-09-07T21:44:13.975Z,100896.00
2022-09-07T21:46:41.767Z,100904.00
2022-09-07T21:49:08.669Z,100901.00
2022-09-07T21:51:35.619Z,100904.00
2022-09-07T21:54:02.369Z,100895.00
2022-09-07T21:56:29.979Z,100893.00
2022-09-07T21:58:58.859Z,100900.00
2022-09-07T22:01:26.889Z,100909.00
2022-09-07T22:03:58.854Z,100899.00
2022-09-07T22:06:30.056Z,100904.00
2022-09-07T22:08:56.855Z,100900.00
2022-09-07T22:11:25.227Z,100900.00
2022-09-07T22:14:01.533Z,100904.00
2022-09-07T22:16:29.077Z,100901.00
2022-09-07T22:18:56.036Z,100896.00
2022-09-07T22:21:25.411Z,100896.00
2022-09-07T22:23:55.783Z,100897.00
2022-09-07T22:26:24.062Z,100883.00
2022-09-07T22:28:51.279Z,100869.00
2022-09-07T22:31:29.703Z,100872.00
2022-09-07T22:33:57.444Z,100883.00
2022-09-07T22:36:29.886Z,100880.00
2022-09-07T22:38:58.187Z,100881.00
2022-09-07T22:41:27.810Z,100882.00
2022-09-07T22:43:54.838Z,100871.00
2022-09-07T22:46:23.159Z,100869.00
2022-09-07T22:48:50.193Z,100850.00
2022-09-07T22:51:16.970Z,100857.00
2022-09-07T22:53:44.243Z,100858.00
2022-09-07T22:56:16.558Z,100851.00
2022-09-07T22:58:48.573Z,100848.00
2022-09-07T23:01:15.903Z,100854.00
2022-09-07T23:03:43.626Z,100846.00
2022-09-07T23:06:31.251Z,100837.00
2022-09-07T23:08:59.560Z,100820.00
2022-09-07T23:11:26.690Z,100835.00
2022-09-07T23:13:55.798Z,100828.00
2022-09-07T23:16:22.967Z,100836.00
2022-09-07T23:18:49.845Z,100819.00
2022-09-07T23:21:16.954Z,100823.00
2022-09-07T23:23:43.934Z,100827.00
2022-09-07T23:26:10.769Z,100823.00
2022-09-07T23:28:37.513Z,100814.00
2022-09-07T23:31:04.306Z,100806.00
2022-09-07T23:33:31.236Z,100814.00
2022-09-07T23:36:03.864Z,100811.00
2022-09-07T23:38:31.140Z,100806.00
2022-09-07T23:40:59.521Z,100803.00
2022-09-07T23:43:27.743Z,100804.00
2022-09-07T23:45:55.239Z,100809.00
2022-09-07T23:48:23.048Z,100811.00
2022-09-07T23:50:50.219Z,100805.00
2022-09-07T23:53:17.894Z,100827.00
2022-09-07T23:55:45.904Z,100811.00
2022-09-07T23:58:12.769Z,100815.00
